Time;durP1;ratioP1;P1;durP2;ratioP2;P2;SDS_P1;SDS_P2;PMS_P1;PMS_P2;Temp;Humidity;BMP_temperature;BMP_pressure;BME280_temperature;BME280_humidity;BME280_pressure;Samples;Min_cycle;Max_cycle;Signal;HPM_P1;HPM_P2
2022/06/21 00:00:43;;;;;;;3.40;1.60;;;15.00;69.50;;;;;;5135232;27;20026;-44
2022/06/21 00:03:16;;;;;;;4.95;1.80;;;14.90;69.50;;;;;;5136036;27;20122;-43
2022/06/21 00:05:46;;;;;;;4.63;1.58;;;15.00;69.60;;;;;;5136123;27;20019;-44
2022/06/21 00:08:15;;;;;;;2.90;1.38;;;14.90;70.30;;;;;;5135219;27;20023;-43
2022/06/21 00:10:42;;;;;;;3.00;1.60;;;14.90;69.70;;;;;;5136372;27;20488;-44
2022/06/21 00:13:15;;;;;;;3.88;1.70;;;14.90;69.70;;;;;;5135937;27;20019;-43
2022/06/21 00:15:42;;;;;;;3.83;1.67;;;14.90;69.90;;;;;;5135902;27;20114;-44
2022/06/21 00:18:18;;;;;;;4.80;1.77;;;14.90;70.00;;;;;;5135878;27;20019;-44
2022/06/21 00:20:44;;;;;;;3.92;1.60;;;14.80;70.00;;;;;;5135698;27;20027;-44
2022/06/21 00:23:14;;;;;;;3.72;1.60;;;14.80;69.90;;;;;;5135765;27;20521;-43
2022/06/21 00:25:40;;;;;;;5.47;1.95;;;14.80;70.10;;;;;;5135671;27;20433;-44
2022/06/21 00:28:06;;;;;;;3.08;1.60;;;14.70;70.00;;;;;;5135960;27;20397;-43
2022/06/21 00:30:32;;;;;;;2.42;1.35;;;14.60;70.10;;;;;;5135601;27;20030;-43
2022/06/21 00:32:57;;;;;;;3.20;1.40;;;14.70;70.30;;;;;;5135514;27;20027;-43
2022/06/21 00:35:25;;;;;;;3.95;1.63;;;14.60;70.40;;;;;;5135728;27;20368;-43
2022/06/21 00:37:51;;;;;;;5.00;1.65;;;14.50;70.50;;;;;;5135433;27;20031;-41
2022/06/21 00:40:30;;;;;;;3.67;1.50;;;14.50;70.50;;;;;;5135505;27;20027;-42
2022/06/21 00:43:03;;;;;;;4.18;1.35;;;14.50;70.60;;;;;;5135608;27;20027;-42
2022/06/21 00:45:39;;;;;;;4.22;1.42;;;14.50;70.60;;;;;;5135749;27;20030;-43
2022/06/21 00:48:42;;;;;;;5.10;1.58;;;14.50;70.60;;;;;;5135238;27;20110;-43
2022/06/21 00:51:15;;;;;;;2.90;1.40;;;14.50;70.70;;;;;;5135438;27;20019;-44
2022/06/21 00:53:48;;;;;;;2.95;1.40;;;14.50;70.70;;;;;;5135101;27;20405;-43
2022/06/21 00:56:22;;;;;;;4.13;1.40;;;14.50;70.70;;;;;;5135204;27;20027;-41
2022/06/21 00:58:48;;;;;;;4.20;1.50;;;14.50;70.70;;;;;;5134991;27;20027;-40
2022/06/21 01:01:26;;;;;;;4.05;1.88;;;14.50;70.80;;;;;;5134959;27;20023;-43
2022/06/21 01:03:58;;;;;;;6.18;1.60;;;14.40;70.90;;;;;;5134943;27;20331;-42
2022/06/21 01:06:38;;;;;;;2.75;1.63;;;14.40;71.00;;;;;;5134843;27;20026;-41
2022/06/21 01:09:17;;;;;;;2.58;1.40;;;14.40;71.00;;;;;;5135193;27;20030;-45
2022/06/21 01:12:12;;;;;;;4.07;1.50;;;14.40;71.10;;;;;;5135021;27;20046;-43
2022/06/21 01:14:43;;;;;;;4.72;1.48;;;14.40;71.30;;;;;;5135312;27;20027;-44
2022/06/21 01:17:12;;;;;;;4.60;1.77;;;14.30;71.30;;;;;;5134949;27;20023;-45
2022/06/21 01:19:51;;;;;;;3.33;1.30;;;14.30;71.40;;;;;;5135489;27;20031;-40
2022/06/21 01:22:17;;;;;;;3.92;1.73;;;14.30;71.40;;;;;;5135200;27;20031;-43
2022/06/21 01:25:13;;;;;;;3.35;1.50;;;14.30;71.40;;;;;;5133170;27;20019;-41
2022/06/21 01:27:39;;;;;;;2.85;1.42;;;14.30;71.50;;;;;;5134490;27;20031;-43
2022/06/21 01:30:06;;;;;;;5.20;1.30;;;14.30;71.40;;;;;;5133145;27;20026;-43
2022/06/21 01:32:32;;;;;;;3.03;1.40;;;14.20;71.50;;;;;;5135175;27;20019;-45
2022/06/21 01:34:59;;;;;;;3.47;1.40;;;14.20;71.60;;;;;;5134507;27;20034;-43
2022/06/21 01:37:30;;;;;;;3.13;1.50;;;14.20;71.70;;;;;;5134650;27;20088;-45
2022/06/21 01:40:06;;;;;;;3.60;1.35;;;14.20;72.10;;;;;;5134995;27;20110;-41
2022/06/21 01:42:53;;;;;;;3.63;1.38;;;14.20;71.80;;;;;;5133679;27;20020;-43
2022/06/21 01:45:26;;;;;;;3.35;1.52;;;14.20;71.90;;;;;;5134513;27;20007;-42
2022/06/21 01:48:23;;;;;;;5.50;1.55;;;14.10;71.90;;;;;;5134189;27;20078;-47
2022/06/21 01:50:52;;;;;;;5.80;1.60;;;14.10;72.10;;;;;;5133231;27;20447;-39
2022/06/21 01:53:21;;;;;;;5.55;1.60;;;14.00;72.00;;;;;;5134073;27;20106;-41
2022/06/21 01:55:52;;;;;;;5.20;1.50;;;14.00;72.00;;;;;;5134254;27;20083;-41
2022/06/21 01:58:21;;;;;;;3.30;1.73;;;14.00;72.10;;;;;;5134257;27;20031;-42
2022/06/21 02:00:59;;;;;;;3.70;1.45;;;13.90;72.80;;;;;;5134155;27;20537;-42
2022/06/21 02:03:31;;;;;;;3.15;1.70;;;13.90;72.30;;;;;;5133802;27;20038;-44
2022/06/21 02:06:01;;;;;;;4.72;1.42;;;13.90;72.30;;;;;;5133966;27;20474;-43
2022/06/21 02:08:36;;;;;;;3.65;1.42;;;13.80;72.40;;;;;;5134167;27;20031;-41
2022/06/21 02:11:07;;;;;;;3.45;1.48;;;13.90;72.60;;;;;;5133837;27;20103;-44
2022/06/21 02:13:39;;;;;;;5.50;1.80;;;13.80;72.50;;;;;;5134419;27;20080;-45
2022/06/21 02:16:15;;;;;;;5.32;1.85;;;13.80;72.50;;;;;;5134367;28;20107;-46
2022/06/21 02:18:55;;;;;;;3.70;1.63;;;13.80;72.60;;;;;;5132459;28;20532;-43
2022/06/21 02:21:29;;;;;;;5.63;1.80;;;13.80;72.60;;;;;;5133835;28;20387;-44
2022/06/21 02:23:57;;;;;;;5.43;1.60;;;13.80;72.60;;;;;;5134002;28;20030;-43
2022/06/21 02:26:24;;;;;;;4.10;1.50;;;13.70;72.50;;;;;;5133947;27;20023;-44
2022/06/21 02:28:49;;;;;;;5.35;1.70;;;13.70;72.60;;;;;;5133675;28;20023;-44
2022/06/21 02:31:15;;;;;;;3.30;1.30;;;13.70;72.60;;;;;;5133642;28;20086;-43
2022/06/21 02:33:43;;;;;;;4.45;1.63;;;13.70;72.70;;;;;;5133483;28;20035;-43
2022/06/21 02:36:16;;;;;;;3.30;1.77;;;13.70;72.70;;;;;;5133951;28;20034;-41
2022/06/21 02:38:47;;;;;;;3.50;1.48;;;13.70;72.80;;;;;;5133770;28;20382;-40
2022/06/21 02:41:39;;;;;;;2.58;1.50;;;13.70;72.90;;;;;;5132195;28;20034;-41
2022/06/21 02:44:24;;;;;;;5.55;1.60;;;13.70;72.90;;;;;;5132168;28;20019;-45
2022/06/21 02:46:56;;;;;;;3.40;1.45;;;13.60;73.10;;;;;;5133810;28;20031;-43
2022/06/21 02:49:31;;;;;;;2.47;1.50;;;13.60;73.10;;;;;;5133649;28;20107;-41
2022/06/21 02:52:05;;;;;;;7.63;1.55;;;13.70;73.20;;;;;;5133689;27;20024;-44
2022/06/21 02:54:45;;;;;;;4.90;1.60;;;13.60;73.30;;;;;;5136452;27;20027;-44
2022/06/21 02:57:20;;;;;;;1.90;1.25;;;13.60;73.30;;;;;;5137650;27;20029;-42
2022/06/21 02:59:49;;;;;;;3.78;1.70;;;13.60;73.30;;;;;;5137255;27;20027;-42
2022/06/21 03:02:20;;;;;;;3.60;1.40;;;13.60;73.30;;;;;;5137175;27;20391;-46
2022/06/21 03:04:59;;;;;;;4.28;1.40;;;13.60;73.30;;;;;;5135906;27;20072;-43
2022/06/21 03:07:29;;;;;;;2.15;1.25;;;13.60;73.40;;;;;;5137796;27;20485;-42
2022/06/21 03:09:56;;;;;;;3.00;1.40;;;13.50;73.40;;;;;;5137608;27;20023;-43
2022/06/21 03:12:26;;;;;;;1.67;1.10;;;13.50;73.50;;;;;;5137504;27;20060;-40
2022/06/21 03:14:55;;;;;;;3.35;1.30;;;13.40;73.60;;;;;;5136957;27;20084;-43
2022/06/21 03:17:32;;;;;;;2.28;1.33;;;13.40;73.70;;;;;;5137262;27;20026;-42
2022/06/21 03:19:58;;;;;;;3.63;1.80;;;13.30;73.80;;;;;;5136965;27;20075;-42
2022/06/21 03:22:29;;;;;;;2.55;1.45;;;13.20;73.90;;;;;;5136947;27;20028;-42
2022/06/21 03:24:58;;;;;;;4.82;1.48;;;13.20;74.20;;;;;;5137419;27;20027;-43
2022/06/21 03:27:31;;;;;;;3.92;1.70;;;13.10;74.40;;;;;;5136912;27;20428;-43
2022/06/21 03:29:57;;;;;;;3.17;1.70;;;13.00;74.50;;;;;;5136732;27;20023;-43
2022/06/21 03:32:25;;;;;;;2.60;1.60;;;13.00;74.70;;;;;;5136997;27;20336;-44
2022/06/21 03:34:50;;;;;;;2.25;1.48;;;12.90;74.80;;;;;;5136983;27;20023;-42
2022/06/21 03:37:18;;;;;;;4.45;1.70;;;12.90;75.00;;;;;;5137215;27;20106;-42
2022/06/21 03:42:32;;;;;;;2.53;1.50;;;12.80;75.30;;;;;;5136579;27;20041;-43
2022/06/21 03:45:12;;;;;;;4.30;1.70;;;12.90;75.40;;;;;;5136797;27;20026;-43
2022/06/21 03:47:49;;;;;;;5.65;1.95;;;12.90;75.50;;;;;;5135088;27;20160;-43
2022/06/21 03:50:47;;;;;;;3.38;1.55;;;12.90;75.40;;;;;;5136587;27;20031;-43
2022/06/21 03:53:20;;;;;;;6.60;1.40;;;12.90;75.50;;;;;;5124204;27;20466;-43
2022/06/21 03:56:01;;;;;;;3.67;1.60;;;13.00;75.50;;;;;;5136253;27;20027;-42
2022/06/21 03:58:47;;;;;;;5.75;1.75;;;13.00;75.50;;;;;;5136705;27;20077;-41
2022/06/21 04:01:16;;;;;;;5.07;1.50;;;13.10;75.50;;;;;;5136235;27;20031;-45
2022/06/21 04:04:06;;;;;;;5.25;2.00;;;13.10;75.50;;;;;;5136206;27;20505;-45
2022/06/21 04:06:43;;;;;;;4.95;2.00;;;13.20;76.10;;;;;;5135705;27;20015;-42
2022/06/21 04:09:27;;;;;;;4.57;1.60;;;13.20;75.40;;;;;;5136740;27;20470;-43
2022/06/21 04:12:15;;;;;;;3.47;1.77;;;13.30;75.40;;;;;;5136067;27;20046;-43
2022/06/21 04:15:08;;;;;;;4.22;1.90;;;13.40;75.40;;;;;;5136327;27;20039;-42
2022/06/21 04:17:45;;;;;;;4.53;1.90;;;13.40;75.40;;;;;;5136059;27;20102;-42
2022/06/21 04:20:21;;;;;;;3.63;1.60;;;13.40;75.20;;;;;;5135886;27;20038;-43
2022/06/21 04:22:53;;;;;;;4.63;1.63;;;13.50;75.30;;;;;;5135870;27;20031;-42
2022/06/21 04:25:24;;;;;;;3.17;1.42;;;13.50;75.20;;;;;;5135761;27;20103;-44
2022/06/21 04:28:01;;;;;;;3.58;1.77;;;13.50;75.10;;;;;;5135750;27;20046;-43
2022/06/21 04:30:38;;;;;;;6.07;1.83;;;13.60;75.10;;;;;;5135619;27;20050;-43
2022/06/21 04:33:11;;;;;;;3.72;1.60;;;13.60;75.00;;;;;;5135556;27;20035;-43
2022/06/21 04:35:48;;;;;;;5.43;1.75;;;13.60;75.00;;;;;;5136171;27;20039;-43
2022/06/21 04:38:23;;;;;;;3.65;1.50;;;13.60;75.00;;;;;;5135641;27;20032;-41
2022/06/21 04:40:59;;;;;;;3.00;1.40;;;13.70;75.10;;;;;;5135504;27;20110;-44
2022/06/21 04:43:36;;;;;;;4.78;1.42;;;13.70;75.00;;;;;;5135734;27;20030;-44
2022/06/21 04:46:08;;;;;;;2.78;1.80;;;13.80;75.10;;;;;;5135241;27;20482;-44
2022/06/21 04:48:45;;;;;;;3.55;1.45;;;13.80;74.90;;;;;;5135579;27;20035;-44
2022/06/21 04:51:17;;;;;;;4.18;1.40;;;13.90;75.00;;;;;;5135605;27;20027;-44
2022/06/21 04:53:55;;;;;;;6.00;1.60;;;13.90;74.90;;;;;;5135815;27;20478;-46
2022/06/21 04:56:29;;;;;;;4.22;1.88;;;13.90;74.90;;;;;;5135183;27;20035;-43
2022/06/21 04:58:56;;;;;;;4.15;1.50;;;14.00;74.90;;;;;;5135338;27;20483;-41
2022/06/21 05:01:32;;;;;;;3.60;1.98;;;14.00;75.40;;;;;;5134789;27;20027;-43
2022/06/21 05:04:11;;;;;;;4.80;1.60;;;14.00;74.80;;;;;;5133683;27;20115;-42
2022/06/21 05:06:38;;;;;;;2.10;1.50;;;14.10;74.80;;;;;;5135299;27;20035;-41
2022/06/21 05:09:04;;;;;;;4.90;1.77;;;14.10;74.70;;;;;;5135324;27;20451;-41
2022/06/21 05:11:30;;;;;;;4.82;1.50;;;14.00;74.70;;;;;;5134797;27;20367;-44
2022/06/21 05:13:59;;;;;;;3.10;1.42;;;14.10;74.80;;;;;;5135059;27;20031;-42
2022/06/21 05:16:37;;;;;;;2.50;1.30;;;14.10;74.90;;;;;;5134023;27;20027;-41
2022/06/21 05:19:23;;;;;;;3.85;1.55;;;14.10;75.70;;;;;;5134254;27;20031;-44
2022/06/21 05:21:56;;;;;;;4.20;1.45;;;14.10;75.00;;;;;;5134327;27;20042;-41
2022/06/21 05:24:22;;;;;;;;;;;14.10;75.00;;;;;;5134788;27;20088;-42
2022/06/21 05:27:15;;;;;;;5.72;1.60;;;14.20;74.90;;;;;;5134360;27;20377;-41
2022/06/21 05:30:08;;;;;;;3.08;1.20;;;14.20;74.80;;;;;;5134259;27;20027;-42
2022/06/21 05:32:40;;;;;;;3.90;1.20;;;14.20;74.80;;;;;;5134124;27;20023;-44
2022/06/21 05:35:13;;;;;;;3.88;1.23;;;14.20;74.70;;;;;;5134468;27;20496;-41
2022/06/21 05:37:48;;;;;;;3.50;1.33;;;14.30;74.70;;;;;;5134262;27;20084;-44
2022/06/21 05:40:29;;;;;;;4.97;1.10;;;14.40;74.70;;;;;;5134510;27;20034;-43
2022/06/21 05:42:55;;;;;;;3.22;0.90;;;14.40;74.60;;;;;;5134181;27;20027;-41
2022/06/21 05:45:28;;;;;;;6.57;1.20;;;14.50;74.60;;;;;;5134040;27;20019;-43
2022/06/21 05:48:00;;;;;;;4.90;1.23;;;14.50;74.60;;;;;;5134069;27;20032;-43
2022/06/21 05:50:32;;;;;;;3.55;0.95;;;14.50;74.50;;;;;;5133999;27;20027;-41
2022/06/21 05:53:14;;;;;;;4.55;1.05;;;14.60;74.50;;;;;;5133910;27;20047;-45
2022/06/21 05:55:46;;;;;;;3.88;1.10;;;14.60;74.40;;;;;;5133830;27;20023;-44
2022/06/21 05:58:25;;;;;;;2.80;1.15;;;14.70;74.40;;;;;;5134009;27;20087;-44
2022/06/21 06:00:54;;;;;;;4.75;1.35;;;14.70;74.30;;;;;;5134196;27;20023;-42
2022/06/21 06:03:46;;;;;;;3.85;0.82;;;14.80;74.20;;;;;;5133962;27;20058;-41
2022/06/21 06:06:18;;;;;;;4.63;1.30;;;14.80;74.20;;;;;;5133968;27;20024;-43
2022/06/21 06:08:49;;;;;;;3.40;1.00;;;14.90;74.10;;;;;;5133589;27;20386;-42
2022/06/21 06:11:22;;;;;;;4.60;0.98;;;15.00;74.00;;;;;;5133781;27;20043;-43
2022/06/21 06:13:50;;;;;;;3.92;1.20;;;15.00;73.90;;;;;;5134258;27;20055;-42
2022/06/21 06:16:37;;;;;;;3.03;1.00;;;15.10;73.80;;;;;;5133680;27;20115;-43
2022/06/21 06:19:17;;;;;;;3.67;1.15;;;15.10;73.60;;;;;;5133444;28;20027;-42
2022/06/21 06:21:52;;;;;;;2.38;1.10;;;15.20;73.60;;;;;;5133631;28;20031;-28
2022/06/21 06:24:28;;;;;;;2.60;1.10;;;15.20;73.50;;;;;;5131992;28;20031;-28
2022/06/21 06:26:58;;;;;;;4.45;1.00;;;15.30;73.40;;;;;;5133466;28;20034;-29
2022/06/21 06:29:31;;;;;;;5.32;0.93;;;15.30;73.30;;;;;;5136486;27;20553;-29
2022/06/21 06:32:06;;;;;;;4.30;1.10;;;15.40;73.20;;;;;;5137653;27;20035;-29
2022/06/21 06:34:36;;;;;;;4.85;1.10;;;15.40;73.10;;;;;;5137681;27;20474;-28
2022/06/21 06:37:12;;;;;;;3.72;0.98;;;15.40;73.00;;;;;;5137907;27;20030;-28
2022/06/21 06:39:38;;;;;;;3.25;1.05;;;15.50;73.60;;;;;;5137744;27;20034;-29
2022/06/21 06:42:17;;;;;;;2.38;0.95;;;15.50;72.80;;;;;;5137809;27;20023;-28
2022/06/21 06:44:56;;;;;;;3.47;1.30;;;15.60;72.70;;;;;;5137659;27;20023;-29
2022/06/21 06:47:28;;;;;;;3.55;0.98;;;15.70;72.70;;;;;;5137431;27;20023;-28
2022/06/21 06:50:06;;;;;;;3.65;1.10;;;15.80;72.50;;;;;;5137624;27;20030;-28
2022/06/21 06:52:47;;;;;;;2.17;0.95;;;15.80;72.30;;;;;;5137403;27;20115;-31
2022/06/21 06:55:35;;;;;;;3.67;1.00;;;15.90;72.30;;;;;;5137414;27;20031;-28
2022/06/21 06:58:34;;;;;;;1.67;0.90;;;16.00;72.10;;;;;;5137154;27;20126;-30
2022/06/21 07:01:03;;;;;;;2.88;1.20;;;16.10;72.00;;;;;;5136813;27;20030;-32
2022/06/21 07:03:36;;;;;;;2.05;1.10;;;16.10;71.80;;;;;;5136980;27;20040;-27
2022/06/21 07:06:05;;;;;;;6.03;1.60;;;16.20;71.70;;;;;;5135891;27;20035;-28
2022/06/21 07:08:37;;;;;;;3.45;1.33;;;16.20;71.60;;;;;;5137162;27;20023;-29
2022/06/21 07:11:18;;;;;;;3.63;1.30;;;16.30;71.60;;;;;;5135828;27;20047;-28
2022/06/21 07:13:43;;;;;;;3.55;1.20;;;16.30;71.40;;;;;;5136993;27;20027;-28
2022/06/21 07:16:14;;;;;;;3.78;1.20;;;16.40;71.30;;;;;;5137042;27;20039;-29
2022/06/21 07:18:48;;;;;;;3.65;1.20;;;16.40;71.10;;;;;;5136729;27;20098;-29
2022/06/21 07:21:15;;;;;;;3.58;1.40;;;16.50;71.00;;;;;;5136891;27;20390;-29
2022/06/21 07:23:42;;;;;;;4.05;1.88;;;16.50;70.80;;;;;;5136896;27;20015;-29
2022/06/21 07:26:23;;;;;;;8.82;2.47;;;16.60;70.70;;;;;;5136715;27;20029;-29
2022/06/21 07:29:03;;;;;;;5.35;1.98;;;16.60;70.60;;;;;;5136875;27;20542;-31
2022/06/21 07:31:38;;;;;;;6.07;1.92;;;16.60;70.60;;;;;;5136698;27;20027;-30
2022/06/21 07:34:29;;;;;;;3.03;1.60;;;16.60;70.50;;;;;;5136610;27;20458;-31
2022/06/21 07:37:14;;;;;;;5.38;1.70;;;16.70;70.50;;;;;;5136581;27;20065;-30
2022/06/21 07:39:49;;;;;;;3.95;2.00;;;16.70;70.40;;;;;;5134923;27;20043;-29
2022/06/21 07:42:24;;;;;;;4.95;2.08;;;16.70;70.30;;;;;;5136862;27;20023;-29
2022/06/21 07:45:05;;;;;;;6.55;1.80;;;16.80;70.10;;;;;;5136485;27;20035;-29
2022/06/21 07:47:43;;;;;;;3.22;1.30;;;16.90;69.90;;;;;;5136795;27;20096;-29
2022/06/21 07:50:17;;;;;;;4.03;1.80;;;17.00;69.60;;;;;;5136301;27;20061;-31
2022/06/21 07:52:51;;;;;;;4.15;1.60;;;17.10;69.30;;;;;;5136556;27;20034;-29
2022/06/21 07:55:38;;;;;;;4.93;1.35;;;17.20;69.10;;;;;;5136349;27;20031;-31
2022/06/21 07:58:30;;;;;;;2.10;1.10;;;17.20;68.80;;;;;;5136881;27;20068;-34
2022/06/21 08:06:41;;;;;;;4.75;1.13;;;17.40;67.90;;;;;;5136166;27;20033;-30
2022/06/21 08:09:29;;;;;;;2.47;1.10;;;17.60;67.70;;;;;;5136091;27;20073;-30
2022/06/21 08:12:00;;;;;;;2.70;1.40;;;17.60;67.40;;;;;;5136089;27;20034;-29
2022/06/21 08:14:30;;;;;;;4.80;1.35;;;17.70;67.10;;;;;;5136331;27;20395;-30
2022/06/21 08:17:35;;;;;;;3.85;1.70;;;17.70;66.90;;;;;;5136059;27;20076;-32
2022/06/21 08:20:12;;;;;;;2.35;1.25;;;17.80;66.80;;;;;;5135303;27;20104;-29
2022/06/21 08:22:42;;;;;;;2.83;1.50;;;17.80;66.70;;;;;;5136673;27;20463;-29
2022/06/21 08:25:33;;;;;;;2.95;1.20;;;17.90;66.60;;;;;;5136262;27;20038;-30
2022/06/21 08:28:12;;;;;;;6.03;1.50;;;18.00;66.40;;;;;;5135666;27;20046;-33
2022/06/21 08:30:53;;;;;;;2.42;1.20;;;18.10;66.20;;;;;;5135761;27;20497;-29
2022/06/21 08:33:34;;;;;;;2.75;1.33;;;18.20;65.80;;;;;;5135867;27;20114;-34
2022/06/21 08:36:04;;;;;;;2.78;1.40;;;18.30;65.50;;;;;;5135531;27;20042;-29
2022/06/21 08:38:59;;;;;;;3.22;1.33;;;18.30;65.30;;;;;;5135788;27;20027;-35
2022/06/21 08:44:39;;;;;;;1.92;1.25;;;18.30;64.60;;;;;;5135731;27;20122;-30
2022/06/21 08:47:26;;;;;;;3.03;0.90;;;18.30;64.60;;;;;;5135604;27;20031;-29
2022/06/21 08:50:09;;;;;;;5.15;1.13;;;18.40;64.60;;;;;;5135076;27;20482;-29
2022/06/21 08:52:54;;;;;;;2.97;1.13;;;18.40;64.20;;;;;;5134891;27;20027;-30
2022/06/21 08:55:23;;;;;;;2.78;1.30;;;18.50;64.10;;;;;;5135037;27;20027;-29
2022/06/21 08:58:00;;;;;;;2.40;1.15;;;18.60;63.70;;;;;;5134801;27;20090;-29
2022/06/21 09:00:40;;;;;;;4.40;1.00;;;18.70;63.50;;;;;;5134756;27;20035;-28
2022/06/21 09:03:17;;;;;;;2.35;1.25;;;18.70;63.50;;;;;;5134404;27;20092;-28
2022/06/21 09:06:01;;;;;;;1.50;1.00;;;18.70;63.20;;;;;;5134426;27;20114;-29
2022/06/21 09:08:29;;;;;;;3.53;1.30;;;18.80;63.10;;;;;;5134866;27;20031;-33
2022/06/21 09:11:23;;;;;;;3.33;1.20;;;18.80;62.80;;;;;;5134664;27;20046;-29
2022/06/21 09:14:06;;;;;;;2.88;1.20;;;18.90;62.50;;;;;;5134344;27;20490;-29
2022/06/21 09:16:56;;;;;;;2.70;1.00;;;19.00;62.40;;;;;;5134746;27;20513;-28
2022/06/21 09:19:40;;;;;;;5.05;1.05;;;19.10;62.20;;;;;;5134515;27;20031;-28
2022/06/21 09:22:29;;;;;;;2.17;1.40;;;19.20;62.10;;;;;;5134479;27;20043;-30
2022/06/21 09:25:15;;;;;;;2.30;1.30;;;19.20;61.70;;;;;;5134282;27;20482;-31
2022/06/21 09:27:46;;;;;;;2.90;1.30;;;19.30;61.10;;;;;;5134327;27;20118;-29
2022/06/21 09:30:51;;;;;;;4.03;1.33;;;19.20;60.90;;;;;;5134785;27;20510;-28
2022/06/21 09:33:41;;;;;;;3.28;1.30;;;19.20;61.00;;;;;;5134076;27;20035;-31
2022/06/21 09:36:51;;;;;;;3.20;0.90;;;19.20;60.90;;;;;;5134058;27;20027;-30
2022/06/21 09:39:36;;;;;;;2.53;0.80;;;19.30;60.90;;;;;;5070761;28;20067;-29
2022/06/21 09:42:12;;;;;;;3.05;1.20;;;19.40;60.40;;;;;;5070407;28;20043;-30
2022/06/21 09:44:57;;;;;;;1.67;0.95;;;19.50;60.00;;;;;;5112411;27;20099;-30
2022/06/21 09:47:33;;;;;;;1.58;1.00;;;19.60;60.40;;;;;;5133599;27;20367;-29
2022/06/21 09:50:16;;;;;;;6.80;1.30;;;19.60;59.40;;;;;;5133694;27;20577;-31
2022/06/21 09:52:56;;;;;;;1.95;0.90;;;19.70;59.20;;;;;;5133671;27;20027;-30
2022/06/21 09:55:46;;;;;;;1.70;1.00;;;19.70;59.00;;;;;;5133471;27;20099;-28
2022/06/21 09:58:37;;;;;;;1.90;0.90;;;19.80;58.30;;;;;;5134090;27;20511;-30
2022/06/21 10:01:20;;;;;;;3.30;0.95;;;19.90;58.30;;;;;;5130375;27;20042;-29
2022/06/21 10:04:10;;;;;;;2.72;0.85;;;20.00;58.30;;;;;;5132720;27;20092;-29
2022/06/21 10:06:43;;;;;;;2.45;0.82;;;20.00;58.20;;;;;;5133926;27;20478;-28
2022/06/21 10:09:17;;;;;;;1.35;0.70;;;20.20;57.90;;;;;;5133509;27;20062;-29
2022/06/21 10:11:52;;;;;;;1.90;0.73;;;20.20;57.50;;;;;;5133408;27;20026;-32
2022/06/21 10:14:39;;;;;;;0.73;0.60;;;20.30;57.10;;;;;;5133716;27;20031;-29
2022/06/21 10:17:25;;;;;;;1.50;0.80;;;20.40;56.30;;;;;;5133530;27;20431;-29
2022/06/21 10:20:24;;;;;;;5.65;1.00;;;20.40;56.30;;;;;;5133434;28;20039;-31
2022/06/21 10:23:22;;;;;;;1.45;0.55;;;20.50;56.00;;;;;;5133491;28;20099;-30
2022/06/21 10:26:09;;;;;;;1.13;0.43;;;20.80;55.70;;;;;;5133711;27;20510;-30
2022/06/21 10:28:59;;;;;;;1.23;0.65;;;20.90;55.30;;;;;;5133372;28;20074;-28
2022/06/21 10:31:48;;;;;;;2.03;0.70;;;21.10;53.80;;;;;;5133571;28;20050;-30
2022/06/21 10:34:26;;;;;;;1.65;0.70;;;21.20;53.80;;;;;;5133260;28;20039;-31
2022/06/21 10:37:19;;;;;;;2.22;0.70;;;21.20;53.80;;;;;;5133634;28;20027;-29
2022/06/21 10:40:21;;;;;;;1.63;0.70;;;21.40;53.20;;;;;;5133555;28;20032;-28
2022/06/21 10:43:34;;;;;;;2.17;0.60;;;21.50;53.10;;;;;;5133097;28;20034;-30
2022/06/21 10:46:03;;;;;;;2.13;0.63;;;21.70;52.70;;;;;;5133385;28;20031;-31
2022/06/21 10:49:04;;;;;;;1.33;0.70;;;21.80;52.60;;;;;;5133225;28;20032;-32
2022/06/21 10:51:48;;;;;;;1.17;0.55;;;21.90;52.50;;;;;;5133425;28;20067;-33
2022/06/21 10:54:40;;;;;;;1.90;0.77;;;22.00;52.20;;;;;;5133069;28;20027;-31
2022/06/21 10:57:38;;;;;;;1.17;0.57;;;22.10;52.70;;;;;;5133125;27;20091;-29
2022/06/21 11:03:13;;;;;;;0.75;0.50;;;22.30;51.90;;;;;;5133013;28;20050;-29
2022/06/21 11:05:48;;;;;;;1.30;0.50;;;22.40;51.60;;;;;;5133026;28;20027;-29
2022/06/21 11:08:26;;;;;;;0.98;0.40;;;22.40;51.60;;;;;;5133383;28;20027;-29
2022/06/21 11:10:54;;;;;;;2.00;0.77;;;22.50;51.30;;;;;;5132938;28;20172;-32
2022/06/21 11:13:22;;;;;;;1.10;0.50;;;22.60;51.00;;;;;;5131588;28;20038;-32
2022/06/21 11:16:07;;;;;;;0.80;0.40;;;22.70;51.00;;;;;;5136664;27;20504;-30
2022/06/21 11:18:47;;;;;;;2.28;0.63;;;22.70;50.80;;;;;;5136944;27;20500;-32
2022/06/21 11:21:24;;;;;;;0.80;0.52;;;22.70;51.00;;;;;;5136829;27;20038;-29
2022/06/21 11:24:06;;;;;;;0.82;0.50;;;22.70;50.80;;;;;;5137043;27;20386;-36
2022/06/21 11:26:51;;;;;;;0.50;0.43;;;22.70;50.80;;;;;;5136468;27;20046;-33
2022/06/21 11:29:43;;;;;;;1.48;0.70;;;22.60;50.60;;;;;;5136769;27;20058;-30
2022/06/21 11:32:27;;;;;;;1.75;0.70;;;22.60;50.40;;;;;;5137551;27;20031;-31
2022/06/21 11:35:03;;;;;;;0.98;0.70;;;22.70;50.40;;;;;;5136653;27;20126;-30
2022/06/21 11:37:52;;;;;;;0.68;0.40;;;22.70;50.10;;;;;;5136862;27;20020;-31
2022/06/21 11:41:05;;;;;;;1.35;0.50;;;22.70;49.90;;;;;;5135372;27;20145;-29
2022/06/21 11:43:53;;;;;;;1.23;0.40;;;22.70;49.90;;;;;;5073194;28;20567;-35
2022/06/21 11:46:45;;;;;;;1.58;0.50;;;22.70;49.90;;;;;;5132934;27;20039;-31
2022/06/21 11:49:48;;;;;;;2.42;0.70;;;22.70;49.60;;;;;;5136717;27;20028;-30
2022/06/21 11:52:41;;;;;;;0.88;0.55;;;22.90;49.50;;;;;;5136874;27;20039;-32
2022/06/21 11:55:27;;;;;;;0.95;0.40;;;23.10;49.30;;;;;;5136566;27;20398;-30
2022/06/21 11:58:19;;;;;;;1.30;0.50;;;23.20;49.50;;;;;;5136652;27;20084;-31
2022/06/21 12:00:57;;;;;;;1.83;0.50;;;23.20;48.70;;;;;;5136066;27;20031;-32
2022/06/21 12:03:28;;;;;;;0.60;0.45;;;23.20;48.90;;;;;;5136009;27;20071;-29
2022/06/21 12:05:58;;;;;;;1.67;0.77;;;23.20;48.30;;;;;;5136070;27;20031;-30
2022/06/21 12:08:48;;;;;;;1.13;0.50;;;23.20;48.10;;;;;;5136181;27;20032;-31
2022/06/21 12:11:33;;;;;;;0.65;0.50;;;23.20;48.20;;;;;;5135944;27;20023;-32
2022/06/21 12:14:16;;;;;;;1.42;0.40;;;23.30;48.00;;;;;;5134677;27;20031;-30
2022/06/21 12:17:03;;;;;;;0.93;0.50;;;23.30;47.70;;;;;;5136011;27;20087;-31
2022/06/21 12:19:35;;;;;;;1.30;0.50;;;23.30;47.00;;;;;;5136063;27;20027;-32
2022/06/21 12:22:16;;;;;;;1.63;0.57;;;23.30;47.10;;;;;;5135934;27;20111;-31
2022/06/21 12:24:42;;;;;;;2.05;0.45;;;23.30;46.40;;;;;;5135977;27;20030;-31
2022/06/21 12:27:11;;;;;;;1.52;0.50;;;23.30;46.40;;;;;;5135075;27;20023;-28
2022/06/21 12:29:37;;;;;;;2.17;0.40;;;23.30;46.10;;;;;;5135936;27;20034;-29
2022/06/21 12:32:06;;;;;;;1.08;0.43;;;23.40;46.20;;;;;;5136105;27;20027;-31
2022/06/21 12:34:40;;;;;;;1.13;0.40;;;23.40;46.10;;;;;;5135726;27;20058;-29
2022/06/21 12:37:22;;;;;;;0.47;0.40;;;23.50;46.00;;;;;;5135710;27;20472;-34
2022/06/21 12:40:18;;;;;;;1.83;0.75;;;23.60;45.80;;;;;;5135587;27;20035;-30
2022/06/21 12:43:11;;;;;;;0.95;0.38;;;23.70;45.90;;;;;;5136016;27;20371;-30
2022/06/21 12:45:53;;;;;;;3.42;0.45;;;23.80;46.30;;;;;;5135843;27;20487;-30
2022/06/21 12:48:41;;;;;;;1.77;0.65;;;23.80;46.30;;;;;;5135482;27;20015;-31
2022/06/21 12:51:21;;;;;;;1.65;0.47;;;23.80;45.70;;;;;;5135065;27;20031;-30
2022/06/21 12:54:03;;;;;;;1.45;0.50;;;23.80;46.00;;;;;;5134870;27;20034;-28
2022/06/21 12:56:45;;;;;;;1.00;0.50;;;23.90;46.00;;;;;;5134935;27;20019;-32
2022/06/21 12:59:34;;;;;;;0.73;0.50;;;24.10;46.30;;;;;;5135040;27;20027;-29
2022/06/21 13:02:48;;;;;;;0.85;0.40;;;24.30;45.90;;;;;;5134640;27;20203;-31
2022/06/21 13:05:38;;;;;;;0.77;0.45;;;24.40;45.60;;;;;;5078863;27;20033;-29
2022/06/21 13:08:12;;;;;;;1.20;0.45;;;24.30;45.10;;;;;;5134542;27;20015;-30
2022/06/21 13:10:50;;;;;;;4.53;0.60;;;24.30;45.80;;;;;;5134943;27;20030;-29
2022/06/21 13:13:31;;;;;;;0.55;0.38;;;24.30;44.90;;;;;;5134960;27;20504;-29
2022/06/21 13:16:15;;;;;;;1.08;0.32;;;24.30;44.50;;;;;;5134568;27;20027;-31
2022/06/21 13:19:22;;;;;;;1.20;0.50;;;24.30;44.50;;;;;;5134509;27;20024;-34
2022/06/21 13:22:00;;;;;;;1.98;0.40;;;24.30;44.60;;;;;;5134329;27;20382;-32
2022/06/21 13:24:48;;;;;;;1.20;0.32;;;24.30;44.80;;;;;;5134304;27;20110;-31
2022/06/21 13:27:14;;;;;;;0.93;0.50;;;24.20;44.60;;;;;;5134559;27;20054;-30
2022/06/21 13:30:24;;;;;;;0.90;0.50;;;24.10;44.80;;;;;;5132943;27;20440;-32
2022/06/21 13:32:54;;;;;;;1.40;0.60;;;24.10;44.90;;;;;;5134255;27;20015;-29
2022/06/21 13:35:39;;;;;;;2.60;0.50;;;24.10;44.90;;;;;;5134469;27;20098;-30
2022/06/21 13:38:22;;;;;;;1.25;0.60;;;24.10;44.90;;;;;;5133501;27;20546;-29
2022/06/21 13:40:58;;;;;;;1.27;0.80;;;24.20;45.10;;;;;;5134318;27;20522;-32
2022/06/21 13:43:42;;;;;;;1.33;0.52;;;24.20;45.00;;;;;;5134182;27;20027;-30
2022/06/21 13:46:32;;;;;;;3.13;0.80;;;24.20;44.90;;;;;;5133871;27;20021;-31
2022/06/21 13:49:02;;;;;;;1.15;0.57;;;24.30;45.00;;;;;;5133962;27;20015;-30
2022/06/21 13:51:46;;;;;;;2.83;0.65;;;24.30;45.10;;;;;;5134034;27;20027;-29
2022/06/21 13:54:51;;;;;;;1.85;0.80;;;24.30;45.00;;;;;;5134505;27;20031;-29
2022/06/21 13:57:47;;;;;;;0.43;0.32;;;24.40;44.70;;;;;;5133509;27;20037;-29
2022/06/21 14:00:16;;;;;;;0.95;0.75;;;24.40;44.70;;;;;;5134029;27;20031;-30